sensor_id;sensor_type;location;lat;lon;timestamp;P1;durP1;ratioP1;P2;durP2;ratioP2
61960;SDS011;47923;42.506;24.192;2023-09-19T00:01:05;7.88;;;5.05;;
61960;SDS011;47923;42.506;24.192;2023-09-19T00:03:36;9.15;;;4.50;;
61960;SDS011;47923;42.506;24.192;2023-09-19T00:06:02;8.18;;;4.55;;
61960;SDS011;47923;42.506;24.192;2023-09-19T00:08:30;7.10;;;4.47;;
61960;SDS011;47923;42.506;24.192;2023-09-19T00:10:55;8.98;;;4.78;;
61960;SDS011;47923;42.506;24.192;2023-09-19T00:13:21;8.25;;;4.60;;
61960;SDS011;47923;42.506;24.192;2023-09-19T00:15:47;9.02;;;4.70;;
61960;SDS011;47923;42.506;24.192;2023-09-19T00:18:14;7.47;;;4.60;;
61960;SDS011;47923;42.506;24.192;2023-09-19T00:20:40;8.35;;;4.80;;
61960;SDS011;47923;42.506;24.192;2023-09-19T00:23:07;7.90;;;4.60;;
61960;SDS011;47923;42.506;24.192;2023-09-19T00:25:35;8.50;;;4.43;;
61960;SDS011;47923;42.506;24.192;2023-09-19T00:28:04;7.75;;;4.47;;
61960;SDS011;47923;42.506;24.192;2023-09-19T00:30:31;8.82;;;4.53;;
61960;SDS011;47923;42.506;24.192;2023-09-19T00:32:58;7.13;;;4.13;;
61960;SDS011;47923;42.506;24.192;2023-09-19T00:35:23;6.32;;;4.03;;
61960;SDS011;47923;42.506;24.192;2023-09-19T00:37:50;7.85;;;4.15;;
61960;SDS011;47923;42.506;24.192;2023-09-19T00:40:16;6.97;;;4.35;;
61960;SDS011;47923;42.506;24.192;2023-09-19T00:42:42;8.68;;;4.30;;
61960;SDS011;47923;42.506;24.192;2023-09-19T00:45:09;8.45;;;4.32;;
61960;SDS011;47923;42.506;24.192;2023-09-19T00:47:40;7.93;;;4.45;;
61960;SDS011;47923;42.506;24.192;2023-09-19T00:50:09;7.72;;;4.45;;
61960;SDS011;47923;42.506;24.192;2023-09-19T00:52:36;8.93;;;3.90;;
61960;SDS011;47923;42.506;24.192;2023-09-19T00:55:04;7.10;;;4.47;;
61960;SDS011;47923;42.506;24.192;2023-09-19T00:57:31;8.57;;;5.15;;
61960;SDS011;47923;42.506;24.192;2023-09-19T00:59:59;8.38;;;5.18;;
61960;SDS011;47923;42.506;24.192;2023-09-19T01:02:26;6.97;;;4.30;;
61960;SDS011;47923;42.506;24.192;2023-09-19T01:04:55;7.57;;;4.30;;
61960;SDS011;47923;42.506;24.192;2023-09-19T01:07:20;7.38;;;4.30;;
61960;SDS011;47923;42.506;24.192;2023-09-19T01:09:47;6.35;;;3.60;;
61960;SDS011;47923;42.506;24.192;2023-09-19T01:12:13;7.22;;;3.72;;
61960;SDS011;47923;42.506;24.192;2023-09-19T01:14:50;7.05;;;3.78;;
61960;SDS011;47923;42.506;24.192;2023-09-19T01:17:40;7.03;;;4.13;;
61960;SDS011;47923;42.506;24.192;2023-09-19T01:21:21;7.82;;;4.70;;
61960;SDS011;47923;42.506;24.192;2023-09-19T01:34:10;8.18;;;4.80;;
61960;SDS011;47923;42.506;24.192;2023-09-19T01:36:36;8.75;;;4.93;;
61960;SDS011;47923;42.506;24.192;2023-09-19T01:39:21;8.93;;;5.18;;
61960;SDS011;47923;42.506;24.192;2023-09-19T01:41:51;7.85;;;4.85;;
61960;SDS011;47923;42.506;24.192;2023-09-19T01:45:26;8.02;;;4.60;;
61960;SDS011;47923;42.506;24.192;2023-09-19T01:47:45;9.05;;;4.55;;
61960;SDS011;47923;42.506;24.192;2023-09-19T01:50:22;9.70;;;5.80;;
61960;SDS011;47923;42.506;24.192;2023-09-19T01:53:24;7.13;;;5.18;;
61960;SDS011;47923;42.506;24.192;2023-09-19T01:55:55;11.02;;;6.05;;
61960;SDS011;47923;42.506;24.192;2023-09-19T01:58:35;8.13;;;4.97;;
61960;SDS011;47923;42.506;24.192;2023-09-19T02:01:08;11.95;;;5.85;;
61960;SDS011;47923;42.506;24.192;2023-09-19T02:03:38;8.32;;;4.70;;
61960;SDS011;47923;42.506;24.192;2023-09-19T02:06:05;12.10;;;5.38;;
61960;SDS011;47923;42.506;24.192;2023-09-19T02:08:36;8.15;;;4.80;;
61960;SDS011;47923;42.506;24.192;2023-09-19T02:11:02;9.43;;;5.47;;
61960;SDS011;47923;42.506;24.192;2023-09-19T02:13:28;9.23;;;4.63;;
61960;SDS011;47923;42.506;24.192;2023-09-19T02:15:56;10.30;;;5.13;;
61960;SDS011;47923;42.506;24.192;2023-09-19T02:18:22;8.63;;;4.95;;
61960;SDS011;47923;42.506;24.192;2023-09-19T02:20:48;9.00;;;5.00;;
61960;SDS011;47923;42.506;24.192;2023-09-19T02:23:13;9.20;;;5.80;;
61960;SDS011;47923;42.506;24.192;2023-09-19T02:25:40;10.55;;;5.68;;
61960;SDS011;47923;42.506;24.192;2023-09-19T02:28:06;10.32;;;5.45;;
61960;SDS011;47923;42.506;24.192;2023-09-19T02:30:34;8.77;;;5.32;;
61960;SDS011;47923;42.506;24.192;2023-09-19T02:33:00;8.25;;;5.28;;
61960;SDS011;47923;42.506;24.192;2023-09-19T02:35:27;10.98;;;5.20;;
61960;SDS011;47923;42.506;24.192;2023-09-19T02:37:53;8.90;;;5.20;;
61960;SDS011;47923;42.506;24.192;2023-09-19T02:40:18;8.77;;;5.38;;
61960;SDS011;47923;42.506;24.192;2023-09-19T02:42:45;9.07;;;5.32;;
61960;SDS011;47923;42.506;24.192;2023-09-19T02:45:12;8.32;;;5.45;;
61960;SDS011;47923;42.506;24.192;2023-09-19T02:47:39;13.55;;;6.20;;
61960;SDS011;47923;42.506;24.192;2023-09-19T02:50:05;9.85;;;5.95;;
61960;SDS011;47923;42.506;24.192;2023-09-19T02:52:31;9.77;;;5.85;;
61960;SDS011;47923;42.506;24.192;2023-09-19T02:54:56;11.25;;;5.88;;
61960;SDS011;47923;42.506;24.192;2023-09-19T02:57:22;8.80;;;5.20;;
61960;SDS011;47923;42.506;24.192;2023-09-19T02:59:49;9.15;;;5.32;;
61960;SDS011;47923;42.506;24.192;2023-09-19T03:02:14;9.85;;;5.63;;
61960;SDS011;47923;42.506;24.192;2023-09-19T03:04:40;10.50;;;7.03;;
61960;SDS011;47923;42.506;24.192;2023-09-19T03:07:06;9.50;;;6.32;;
61960;SDS011;47923;42.506;24.192;2023-09-19T03:09:31;9.13;;;6.28;;
61960;SDS011;47923;42.506;24.192;2023-09-19T03:11:57;11.23;;;7.13;;
61960;SDS011;47923;42.506;24.192;2023-09-19T03:14:23;10.45;;;6.50;;
61960;SDS011;47923;42.506;24.192;2023-09-19T03:16:48;9.32;;;6.53;;
61960;SDS011;47923;42.506;24.192;2023-09-19T03:19:14;9.48;;;6.80;;
61960;SDS011;47923;42.506;24.192;2023-09-19T03:21:40;10.90;;;5.97;;
61960;SDS011;47923;42.506;24.192;2023-09-19T03:24:05;10.60;;;6.47;;
61960;SDS011;47923;42.506;24.192;2023-09-19T03:26:31;12.52;;;6.88;;
61960;SDS011;47923;42.506;24.192;2023-09-19T03:28:58;13.20;;;7.30;;
61960;SDS011;47923;42.506;24.192;2023-09-19T03:31:23;11.73;;;7.50;;
61960;SDS011;47923;42.506;24.192;2023-09-19T03:33:49;12.45;;;7.18;;
61960;SDS011;47923;42.506;24.192;2023-09-19T03:36:14;10.38;;;6.65;;
61960;SDS011;47923;42.506;24.192;2023-09-19T03:38:40;11.65;;;6.97;;
61960;SDS011;47923;42.506;24.192;2023-09-19T03:41:05;13.40;;;6.50;;
61960;SDS011;47923;42.506;24.192;2023-09-19T03:43:33;10.27;;;6.70;;
61960;SDS011;47923;42.506;24.192;2023-09-19T03:46:02;10.50;;;5.70;;
61960;SDS011;47923;42.506;24.192;2023-09-19T03:48:29;8.13;;;5.40;;
61960;SDS011;47923;42.506;24.192;2023-09-19T03:50:55;10.10;;;5.65;;
61960;SDS011;47923;42.506;24.192;2023-09-19T03:53:21;10.55;;;6.25;;
61960;SDS011;47923;42.506;24.192;2023-09-19T03:55:47;12.65;;;6.78;;
61960;SDS011;47923;42.506;24.192;2023-09-19T03:58:12;10.88;;;7.00;;
61960;SDS011;47923;42.506;24.192;2023-09-19T04:00:38;13.30;;;6.72;;
61960;SDS011;47923;42.506;24.192;2023-09-19T04:03:04;13.48;;;7.15;;
61960;SDS011;47923;42.506;24.192;2023-09-19T04:05:31;10.52;;;6.22;;
61960;SDS011;47923;42.506;24.192;2023-09-19T04:07:58;9.35;;;6.20;;
61960;SDS011;47923;42.506;24.192;2023-09-19T04:10:24;9.45;;;6.05;;
61960;SDS011;47923;42.506;24.192;2023-09-19T04:12:52;11.30;;;6.50;;
61960;SDS011;47923;42.506;24.192;2023-09-19T04:15:18;9.63;;;6.82;;
61960;SDS011;47923;42.506;24.192;2023-09-19T04:17:44;13.70;;;8.23;;
61960;SDS011;47923;42.506;24.192;2023-09-19T04:20:09;13.07;;;8.00;;
61960;SDS011;47923;42.506;24.192;2023-09-19T04:22:37;16.20;;;8.10;;
61960;SDS011;47923;42.506;24.192;2023-09-19T04:25:04;13.75;;;7.18;;
61960;SDS011;47923;42.506;24.192;2023-09-19T04:27:32;10.75;;;6.80;;
61960;SDS011;47923;42.506;24.192;2023-09-19T04:29:57;12.20;;;8.10;;
61960;SDS011;47923;42.506;24.192;2023-09-19T04:32:24;16.30;;;7.43;;
61960;SDS011;47923;42.506;24.192;2023-09-19T04:34:53;13.00;;;6.75;;
61960;SDS011;47923;42.506;24.192;2023-09-19T04:37:20;11.38;;;6.70;;
61960;SDS011;47923;42.506;24.192;2023-09-19T04:39:46;12.38;;;6.60;;
61960;SDS011;47923;42.506;24.192;2023-09-19T04:42:12;10.15;;;6.88;;
61960;SDS011;47923;42.506;24.192;2023-09-19T04:44:39;11.18;;;7.03;;
61960;SDS011;47923;42.506;24.192;2023-09-19T04:47:05;11.77;;;7.47;;
61960;SDS011;47923;42.506;24.192;2023-09-19T04:49:31;11.57;;;7.72;;
61960;SDS011;47923;42.506;24.192;2023-09-19T04:51:56;13.07;;;7.25;;
61960;SDS011;47923;42.506;24.192;2023-09-19T04:54:22;15.88;;;6.97;;
61960;SDS011;47923;42.506;24.192;2023-09-19T04:56:47;15.43;;;6.63;;
61960;SDS011;47923;42.506;24.192;2023-09-19T04:59:13;10.02;;;5.43;;
61960;SDS011;47923;42.506;24.192;2023-09-19T05:01:39;9.27;;;5.38;;
61960;SDS011;47923;42.506;24.192;2023-09-19T05:04:05;11.05;;;6.38;;
61960;SDS011;47923;42.506;24.192;2023-09-19T05:06:31;9.10;;;6.18;;
61960;SDS011;47923;42.506;24.192;2023-09-19T05:08:56;9.45;;;6.00;;
61960;SDS011;47923;42.506;24.192;2023-09-19T05:11:21;10.95;;;5.53;;
61960;SDS011;47923;42.506;24.192;2023-09-19T05:13:48;8.55;;;4.90;;
61960;SDS011;47923;42.506;24.192;2023-09-19T05:16:15;10.40;;;4.75;;
61960;SDS011;47923;42.506;24.192;2023-09-19T05:18:41;11.95;;;4.90;;
61960;SDS011;47923;42.506;24.192;2023-09-19T05:21:07;10.23;;;4.78;;
61960;SDS011;47923;42.506;24.192;2023-09-19T05:23:33;11.93;;;4.75;;
61960;SDS011;47923;42.506;24.192;2023-09-19T05:25:58;9.70;;;5.07;;
61960;SDS011;47923;42.506;24.192;2023-09-19T05:28:25;9.02;;;4.63;;
61960;SDS011;47923;42.506;24.192;2023-09-19T05:30:51;8.48;;;4.43;;
61960;SDS011;47923;42.506;24.192;2023-09-19T05:33:18;8.63;;;4.20;;
61960;SDS011;47923;42.506;24.192;2023-09-19T05:35:44;9.82;;;4.63;;
61960;SDS011;47923;42.506;24.192;2023-09-19T05:38:12;8.10;;;4.43;;
61960;SDS011;47923;42.506;24.192;2023-09-19T05:40:38;8.45;;;4.65;;
61960;SDS011;47923;42.506;24.192;2023-09-19T05:43:07;5.90;;;3.72;;
61960;SDS011;47923;42.506;24.192;2023-09-19T05:45:33;9.25;;;4.03;;
61960;SDS011;47923;42.506;24.192;2023-09-19T05:48:07;8.45;;;4.40;;
61960;SDS011;47923;42.506;24.192;2023-09-19T05:50:34;8.43;;;4.32;;
61960;SDS011;47923;42.506;24.192;2023-09-19T05:52:59;9.02;;;4.85;;
61960;SDS011;47923;42.506;24.192;2023-09-19T05:55:25;8.90;;;4.93;;
61960;SDS011;47923;42.506;24.192;2023-09-19T05:57:50;10.25;;;5.03;;
61960;SDS011;47923;42.506;24.192;2023-09-19T06:00:17;8.25;;;4.13;;
61960;SDS011;47923;42.506;24.192;2023-09-19T06:02:52;8.43;;;4.10;;
61960;SDS011;47923;42.506;24.192;2023-09-19T06:05:18;6.15;;;3.35;;
61960;SDS011;47923;42.506;24.192;2023-09-19T06:07:45;8.20;;;3.67;;
61960;SDS011;47923;42.506;24.192;2023-09-19T06:10:10;5.97;;;3.03;;
61960;SDS011;47923;42.506;24.192;2023-09-19T06:12:39;5.63;;;3.42;;
61960;SDS011;47923;42.506;24.192;2023-09-19T06:15:11;5.72;;;3.47;;
61960;SDS011;47923;42.506;24.192;2023-09-19T06:17:50;7.72;;;3.72;;
61960;SDS011;47923;42.506;24.192;2023-09-19T06:20:20;6.40;;;3.65;;
61960;SDS011;47923;42.506;24.192;2023-09-19T06:22:47;7.07;;;3.50;;
61960;SDS011;47923;42.506;24.192;2023-09-19T06:25:13;6.60;;;3.92;;
61960;SDS011;47923;42.506;24.192;2023-09-19T06:27:49;12.45;;;4.72;;
61960;SDS011;47923;42.506;24.192;2023-09-19T06:30:17;10.45;;;4.00;;
61960;SDS011;47923;42.506;24.192;2023-09-19T06:32:43;7.97;;;3.83;;
61960;SDS011;47923;42.506;24.192;2023-09-19T06:35:09;8.52;;;4.32;;
61960;SDS011;47923;42.506;24.192;2023-09-19T06:37:36;8.25;;;4.13;;
61960;SDS011;47923;42.506;24.192;2023-09-19T06:40:08;7.97;;;3.90;;
61960;SDS011;47923;42.506;24.192;2023-09-19T06:42:43;6.80;;;4.20;;
61960;SDS011;47923;42.506;24.192;2023-09-19T06:45:13;8.35;;;4.18;;
61960;SDS011;47923;42.506;24.192;2023-09-19T06:47:50;9.48;;;4.15;;
61960;SDS011;47923;42.506;24.192;2023-09-19T06:50:20;12.18;;;5.38;;
61960;SDS011;47923;42.506;24.192;2023-09-19T06:52:48;10.55;;;5.00;;
61960;SDS011;47923;42.506;24.192;2023-09-19T06:55:19;8.45;;;4.53;;
61960;SDS011;47923;42.506;24.192;2023-09-19T06:57:46;11.70;;;5.28;;
61960;SDS011;47923;42.506;24.192;2023-09-19T07:00:12;9.52;;;5.35;;
61960;SDS011;47923;42.506;24.192;2023-09-19T07:02:57;9.38;;;4.82;;
61960;SDS011;47923;42.506;24.192;2023-09-19T07:05:29;9.18;;;4.43;;
61960;SDS011;47923;42.506;24.192;2023-09-19T07:07:57;10.20;;;4.82;;
61960;SDS011;47923;42.506;24.192;2023-09-19T07:10:24;9.15;;;4.43;;
61960;SDS011;47923;42.506;24.192;2023-09-19T07:12:57;8.07;;;4.05;;
61960;SDS011;47923;42.506;24.192;2023-09-19T07:15:24;7.03;;;3.95;;
61960;SDS011;47923;42.506;24.192;2023-09-19T07:17:51;6.50;;;3.33;;
61960;SDS011;47923;42.506;24.192;2023-09-19T07:20:18;6.45;;;3.03;;
61960;SDS011;47923;42.506;24.192;2023-09-19T07:22:43;7.15;;;3.60;;
61960;SDS011;47923;42.506;24.192;2023-09-19T07:25:09;8.80;;;3.70;;
61960;SDS011;47923;42.506;24.192;2023-09-19T07:27:35;8.63;;;3.08;;
61960;SDS011;47923;42.506;24.192;2023-09-19T07:30:00;7.10;;;2.47;;
61960;SDS011;47923;42.506;24.192;2023-09-19T07:32:26;5.30;;;2.83;;
61960;SDS011;47923;42.506;24.192;2023-09-19T07:34:51;6.55;;;2.72;;
61960;SDS011;47923;42.506;24.192;2023-09-19T07:37:16;4.80;;;2.83;;
61960;SDS011;47923;42.506;24.192;2023-09-19T07:39:42;3.97;;;2.40;;
61960;SDS011;47923;42.506;24.192;2023-09-19T07:42:08;4.47;;;2.40;;
61960;SDS011;47923;42.506;24.192;2023-09-19T07:44:36;5.70;;;2.70;;
61960;SDS011;47923;42.506;24.192;2023-09-19T07:47:01;10.90;;;3.00;;
61960;SDS011;47923;42.506;24.192;2023-09-19T07:49:28;3.75;;;2.28;;
61960;SDS011;47923;42.506;24.192;2023-09-19T07:51:54;3.83;;;2.00;;
61960;SDS011;47923;42.506;24.192;2023-09-19T07:54:19;2.63;;;1.90;;
61960;SDS011;47923;42.506;24.192;2023-09-19T07:56:46;3.67;;;2.00;;
61960;SDS011;47923;42.506;24.192;2023-09-19T07:59:11;4.32;;;2.40;;
61960;SDS011;47923;42.506;24.192;2023-09-19T08:01:38;3.65;;;2.25;;
61960;SDS011;47923;42.506;24.192;2023-09-19T08:04:06;4.22;;;1.65;;
61960;SDS011;47923;42.506;24.192;2023-09-19T08:06:32;4.70;;;2.22;;
61960;SDS011;47923;42.506;24.192;2023-09-19T08:08:58;4.97;;;2.22;;
61960;SDS011;47923;42.506;24.192;2023-09-19T08:11:25;4.15;;;2.58;;
61960;SDS011;47923;42.506;24.192;2023-09-19T08:13:55;5.70;;;2.65;;
61960;SDS011;47923;42.506;24.192;2023-09-19T08:16:21;5.53;;;2.80;;
61960;SDS011;47923;42.506;24.192;2023-09-19T08:18:47;6.75;;;2.72;;
61960;SDS011;47923;42.506;24.192;2023-09-19T08:21:13;9.15;;;3.00;;
61960;SDS011;47923;42.506;24.192;2023-09-19T08:23:40;4.13;;;2.47;;
61960;SDS011;47923;42.506;24.192;2023-09-19T08:26:07;3.45;;;2.15;;
61960;SDS011;47923;42.506;24.192;2023-09-19T08:28:35;4.60;;;2.60;;
61960;SDS011;47923;42.506;24.192;2023-09-19T08:31:04;4.50;;;2.15;;
61960;SDS011;47923;42.506;24.192;2023-09-19T08:33:31;5.50;;;2.63;;
61960;SDS011;47923;42.506;24.192;2023-09-19T08:36:04;5.53;;;2.55;;
61960;SDS011;47923;42.506;24.192;2023-09-19T08:38:33;5.53;;;2.70;;
61960;SDS011;47923;42.506;24.192;2023-09-19T08:41:00;5.43;;;2.80;;
61960;SDS011;47923;42.506;24.192;2023-09-19T08:43:30;5.93;;;2.78;;
61960;SDS011;47923;42.506;24.192;2023-09-19T08:45:58;4.95;;;2.50;;
61960;SDS011;47923;42.506;24.192;2023-09-19T08:48:33;6.72;;;2.78;;
61960;SDS011;47923;42.506;24.192;2023-09-19T08:51:02;5.55;;;2.60;;
61960;SDS011;47923;42.506;24.192;2023-09-19T08:56:08;6.75;;;2.85;;
61960;SDS011;47923;42.506;24.192;2023-09-19T08:58:39;4.97;;;2.60;;
61960;SDS011;47923;42.506;24.192;2023-09-19T09:01:12;6.03;;;2.65;;
61960;SDS011;47923;42.506;24.192;2023-09-19T09:03:47;5.60;;;2.33;;
61960;SDS011;47923;42.506;24.192;2023-09-19T09:06:14;4.10;;;2.30;;
61960;SDS011;47923;42.506;24.192;2023-09-19T09:08:40;6.05;;;2.50;;
61960;SDS011;47923;42.506;24.192;2023-09-19T09:11:07;4.40;;;2.40;;
61960;SDS011;47923;42.506;24.192;2023-09-19T09:13:34;5.35;;;2.22;;
61960;SDS011;47923;42.506;24.192;2023-09-19T09:16:01;4.65;;;2.60;;
61960;SDS011;47923;42.506;24.192;2023-09-19T09:18:28;6.05;;;2.80;;
61960;SDS011;47923;42.506;24.192;2023-09-19T09:20:55;9.10;;;3.03;;
61960;SDS011;47923;42.506;24.192;2023-09-19T09:23:21;3.60;;;2.35;;
61960;SDS011;47923;42.506;24.192;2023-09-19T09:25:53;5.38;;;2.60;;
61960;SDS011;47923;42.506;24.192;2023-09-19T09:30:49;3.38;;;2.20;;
61960;SDS011;47923;42.506;24.192;2023-09-19T09:33:18;5.05;;;2.65;;
61960;SDS011;47923;42.506;24.192;2023-09-19T09:35:53;8.15;;;2.65;;
61960;SDS011;47923;42.506;24.192;2023-09-19T09:38:22;6.22;;;2.70;;
61960;SDS011;47923;42.506;24.192;2023-09-19T09:40:53;4.78;;;2.20;;
61960;SDS011;47923;42.506;24.192;2023-09-19T09:43:35;5.20;;;2.35;;
61960;SDS011;47923;42.506;24.192;2023-09-19T09:48:48;7.30;;;2.65;;
61960;SDS011;47923;42.506;24.192;2023-09-19T09:51:41;5.78;;;2.70;;
61960;SDS011;47923;42.506;24.192;2023-09-19T09:54:23;4.38;;;2.42;;
61960;SDS011;47923;42.506;24.192;2023-09-19T09:56:56;4.63;;;2.35;;
61960;SDS011;47923;42.506;24.192;2023-09-19T10:02:19;4.57;;;2.40;;
61960;SDS011;47923;42.506;24.192;2023-09-19T10:04:54;4.72;;;2.58;;
61960;SDS011;47923;42.506;24.192;2023-09-19T10:07:39;5.90;;;2.55;;
61960;SDS011;47923;42.506;24.192;2023-09-19T10:10:07;5.32;;;2.42;;
61960;SDS011;47923;42.506;24.192;2023-09-19T10:12:46;5.68;;;2.42;;
61960;SDS011;47923;42.506;24.192;2023-09-19T10:15:17;5.20;;;2.05;;
61960;SDS011;47923;42.506;24.192;2023-09-19T10:17:46;6.35;;;3.08;;
61960;SDS011;47923;42.506;24.192;2023-09-19T10:20:13;4.97;;;2.63;;
61960;SDS011;47923;42.506;24.192;2023-09-19T10:23:07;5.78;;;3.05;;
61960;SDS011;47923;42.506;24.192;2023-09-19T10:25:45;5.88;;;2.72;;
61960;SDS011;47923;42.506;24.192;2023-09-19T10:28:13;6.20;;;2.80;;
61960;SDS011;47923;42.506;24.192;2023-09-19T10:30:46;5.05;;;2.78;;
61960;SDS011;47923;42.506;24.192;2023-09-19T10:33:16;4.97;;;2.53;;
61960;SDS011;47923;42.506;24.192;2023-09-19T10:35:44;6.25;;;2.22;;
61960;SDS011;47923;42.506;24.192;2023-09-19T10:38:17;6.20;;;2.55;;
61960;SDS011;47923;42.506;24.192;2023-09-19T10:40:44;5.25;;;2.50;;
61960;SDS011;47923;42.506;24.192;2023-09-19T10:43:15;4.97;;;2.60;;
61960;SDS011;47923;42.506;24.192;2023-09-19T10:45:45;4.18;;;2.25;;
61960;SDS011;47923;42.506;24.192;2023-09-19T10:48:18;8.13;;;2.95;;
61960;SDS011;47923;42.506;24.192;2023-09-19T10:56:36;5.35;;;2.58;;
61960;SDS011;47923;42.506;24.192;2023-09-19T11:01:44;4.03;;;2.15;;
61960;SDS011;47923;42.506;24.192;2023-09-19T11:04:23;4.45;;;2.42;;
61960;SDS011;47923;42.506;24.192;2023-09-19T11:15:11;5.20;;;2.50;;
61960;SDS011;47923;42.506;24.192;2023-09-19T11:19:00;4.03;;;2.38;;
61960;SDS011;47923;42.506;24.192;2023-09-19T11:26:47;5.28;;;2.60;;
61960;SDS011;47923;42.506;24.192;2023-09-19T11:29:26;6.18;;;2.90;;
61960;SDS011;47923;42.506;24.192;2023-09-19T11:31:54;5.50;;;2.50;;
61960;SDS011;47923;42.506;24.192;2023-09-19T11:39:39;4.97;;;2.53;;
61960;SDS011;47923;42.506;24.192;2023-09-19T11:42:41;5.07;;;2.60;;
61960;SDS011;47923;42.506;24.192;2023-09-19T11:48:15;7.35;;;2.95;;
61960;SDS011;47923;42.506;24.192;2023-09-19T11:50:44;4.50;;;2.78;;
61960;SDS011;47923;42.506;24.192;2023-09-19T11:53:12;6.63;;;2.67;;
61960;SDS011;47923;42.506;24.192;2023-09-19T11:55:39;4.22;;;2.33;;
61960;SDS011;47923;42.506;24.192;2023-09-19T11:58:07;7.15;;;2.80;;
61960;SDS011;47923;42.506;24.192;2023-09-19T12:00:34;4.82;;;2.67;;
61960;SDS011;47923;42.506;24.192;2023-09-19T12:03:02;4.35;;;2.17;;
61960;SDS011;47923;42.506;24.192;2023-09-19T12:05:34;8.23;;;2.88;;
61960;SDS011;47923;42.506;24.192;2023-09-19T12:08:00;6.28;;;2.85;;
61960;SDS011;47923;42.506;24.192;2023-09-19T12:10:26;5.78;;;2.55;;
61960;SDS011;47923;42.506;24.192;2023-09-19T12:12:52;6.40;;;2.53;;
61960;SDS011;47923;42.506;24.192;2023-09-19T12:15:27;7.70;;;3.30;;
61960;SDS011;47923;42.506;24.192;2023-09-19T12:17:54;5.57;;;2.50;;
61960;SDS011;47923;42.506;24.192;2023-09-19T12:20:20;6.25;;;2.90;;
61960;SDS011;47923;42.506;24.192;2023-09-19T12:22:46;5.90;;;3.00;;
61960;SDS011;47923;42.506;24.192;2023-09-19T12:25:12;7.25;;;2.65;;
61960;SDS011;47923;42.506;24.192;2023-09-19T12:30:11;4.80;;;2.35;;
61960;SDS011;47923;42.506;24.192;2023-09-19T12:32:39;5.90;;;3.17;;
61960;SDS011;47923;42.506;24.192;2023-09-19T12:35:06;4.93;;;2.60;;
61960;SDS011;47923;42.506;24.192;2023-09-19T12:37:44;5.70;;;2.90;;
61960;SDS011;47923;42.506;24.192;2023-09-19T12:40:17;5.07;;;2.58;;
61960;SDS011;47923;42.506;24.192;2023-09-19T12:42:50;6.80;;;2.90;;
61960;SDS011;47923;42.506;24.192;2023-09-19T12:45:18;9.30;;;3.60;;
61960;SDS011;47923;42.506;24.192;2023-09-19T12:51:07;7.25;;;3.15;;
61960;SDS011;47923;42.506;24.192;2023-09-19T12:53:41;5.25;;;2.70;;
61960;SDS011;47923;42.506;24.192;2023-09-19T12:56:09;5.18;;;2.90;;
61960;SDS011;47923;42.506;24.192;2023-09-19T12:58:56;6.30;;;2.97;;
61960;SDS011;47923;42.506;24.192;2023-09-19T13:01:28;6.20;;;2.85;;
61960;SDS011;47923;42.506;24.192;2023-09-19T13:04:27;5.90;;;3.10;;
61960;SDS011;47923;42.506;24.192;2023-09-19T13:06:55;5.60;;;3.05;;
61960;SDS011;47923;42.506;24.192;2023-09-19T13:09:26;5.88;;;3.00;;
61960;SDS011;47923;42.506;24.192;2023-09-19T13:11:59;4.43;;;2.50;;
61960;SDS011;47923;42.506;24.192;2023-09-19T13:14:27;4.80;;;3.08;;
61960;SDS011;47923;42.506;24.192;2023-09-19T13:19:48;5.85;;;2.88;;
61960;SDS011;47923;42.506;24.192;2023-09-19T13:25:18;6.43;;;2.95;;
61960;SDS011;47923;42.506;24.192;2023-09-19T13:27:46;8.57;;;3.35;;
61960;SDS011;47923;42.506;24.192;2023-09-19T13:30:13;7.05;;;3.17;;
61960;SDS011;47923;42.506;24.192;2023-09-19T13:32:39;7.13;;;3.10;;
61960;SDS011;47923;42.506;24.192;2023-09-19T13:35:06;5.88;;;3.00;;
61960;SDS011;47923;42.506;24.192;2023-09-19T13:37:35;6.72;;;3.08;;
61960;SDS011;47923;42.506;24.192;2023-09-19T13:42:33;4.03;;;2.40;;
61960;SDS011;47923;42.506;24.192;2023-09-19T13:44:59;5.57;;;2.78;;
61960;SDS011;47923;42.506;24.192;2023-09-19T13:47:25;5.05;;;2.90;;
61960;SDS011;47923;42.506;24.192;2023-09-19T13:49:51;5.35;;;2.83;;
61960;SDS011;47923;42.506;24.192;2023-09-19T13:52:20;7.25;;;3.40;;
61960;SDS011;47923;42.506;24.192;2023-09-19T13:54:48;7.53;;;3.50;;
61960;SDS011;47923;42.506;24.192;2023-09-19T13:57:13;6.13;;;2.63;;
61960;SDS011;47923;42.506;24.192;2023-09-19T13:59:39;5.88;;;2.92;;
61960;SDS011;47923;42.506;24.192;2023-09-19T14:02:04;5.25;;;3.13;;
61960;SDS011;47923;42.506;24.192;2023-09-19T14:04:32;5.43;;;2.85;;
61960;SDS011;47923;42.506;24.192;2023-09-19T14:06:59;5.55;;;3.03;;
61960;SDS011;47923;42.506;24.192;2023-09-19T14:09:25;9.05;;;2.83;;
61960;SDS011;47923;42.506;24.192;2023-09-19T14:11:51;7.78;;;3.28;;
61960;SDS011;47923;42.506;24.192;2023-09-19T14:14:20;7.55;;;3.42;;
61960;SDS011;47923;42.506;24.192;2023-09-19T14:16:46;5.60;;;2.80;;
61960;SDS011;47923;42.506;24.192;2023-09-19T14:19:12;6.90;;;3.28;;
61960;SDS011;47923;42.506;24.192;2023-09-19T14:21:40;5.70;;;3.10;;
61960;SDS011;47923;42.506;24.192;2023-09-19T14:24:05;9.13;;;3.22;;
61960;SDS011;47923;42.506;24.192;2023-09-19T14:26:38;6.25;;;3.08;;
61960;SDS011;47923;42.506;24.192;2023-09-19T14:29:04;5.35;;;2.67;;
61960;SDS011;47923;42.506;24.192;2023-09-19T14:31:32;7.03;;;2.95;;
61960;SDS011;47923;42.506;24.192;2023-09-19T14:33:58;5.38;;;2.70;;
61960;SDS011;47923;42.506;24.192;2023-09-19T14:36:24;7.00;;;2.78;;
61960;SDS011;47923;42.506;24.192;2023-09-19T14:38:53;5.70;;;2.88;;
61960;SDS011;47923;42.506;24.192;2023-09-19T14:41:20;4.05;;;2.35;;
61960;SDS011;47923;42.506;24.192;2023-09-19T14:43:45;4.50;;;2.80;;
61960;SDS011;47923;42.506;24.192;2023-09-19T14:46:11;7.80;;;3.00;;
61960;SDS011;47923;42.506;24.192;2023-09-19T14:48:36;5.80;;;3.00;;
61960;SDS011;47923;42.506;24.192;2023-09-19T14:51:03;5.25;;;3.00;;
61960;SDS011;47923;42.506;24.192;2023-09-19T14:53:29;5.43;;;2.88;;
61960;SDS011;47923;42.506;24.192;2023-09-19T14:55:55;8.70;;;3.50;;
61960;SDS011;47923;42.506;24.192;2023-09-19T14:58:21;8.57;;;3.75;;
61960;SDS011;47923;42.506;24.192;2023-09-19T15:00:47;6.25;;;3.00;;
61960;SDS011;47923;42.506;24.192;2023-09-19T15:03:12;4.65;;;2.75;;
61960;SDS011;47923;42.506;24.192;2023-09-19T15:05:41;8.15;;;3.05;;
61960;SDS011;47923;42.506;24.192;2023-09-19T15:08:06;7.22;;;3.40;;
61960;SDS011;47923;42.506;24.192;2023-09-19T15:10:31;6.00;;;3.30;;
61960;SDS011;47923;42.506;24.192;2023-09-19T15:12:57;6.13;;;3.20;;
61960;SDS011;47923;42.506;24.192;2023-09-19T15:15:22;5.00;;;3.00;;
61960;SDS011;47923;42.506;24.192;2023-09-19T15:17:48;5.65;;;2.80;;
61960;SDS011;47923;42.506;24.192;2023-09-19T15:20:13;5.93;;;3.08;;
61960;SDS011;47923;42.506;24.192;2023-09-19T15:22:39;8.15;;;3.33;;
61960;SDS011;47923;42.506;24.192;2023-09-19T15:25:05;6.65;;;3.05;;
61960;SDS011;47923;42.506;24.192;2023-09-19T15:27:31;8.25;;;3.35;;
61960;SDS011;47923;42.506;24.192;2023-09-19T15:29:58;4.70;;;2.88;;
61960;SDS011;47923;42.506;24.192;2023-09-19T15:32:25;6.40;;;3.08;;
61960;SDS011;47923;42.506;24.192;2023-09-19T15:34:51;5.80;;;3.17;;
61960;SDS011;47923;42.506;24.192;2023-09-19T15:37:16;8.02;;;3.38;;
61960;SDS011;47923;42.506;24.192;2023-09-19T15:39:42;7.55;;;2.85;;
61960;SDS011;47923;42.506;24.192;2023-09-19T15:42:10;4.53;;;2.75;;
61960;SDS011;47923;42.506;24.192;2023-09-19T15:44:36;6.60;;;2.80;;
61960;SDS011;47923;42.506;24.192;2023-09-19T15:47:02;8.10;;;2.97;;
61960;SDS011;47923;42.506;24.192;2023-09-19T15:49:29;9.05;;;3.20;;